createdAt,value
2017-11-01T00:00:14.531Z,0
2017-11-01T00:01:14.908Z,0
2017-11-01T00:02:14.858Z,0
2017-11-01T00:03:15.172Z,0
2017-11-01T00:04:14.825Z,0
2017-11-01T00:05:15.146Z,0
2017-11-01T00:06:14.440Z,0
2017-11-01T00:07:14.425Z,0
2017-11-01T00:08:14.763Z,0
2017-11-01T00:09:14.439Z,0
2017-11-01T00:10:14.390Z,0
2017-11-01T00:11:14.387Z,0
2017-11-01T00:12:14.377Z,0
2017-11-01T00:13:14.684Z,0
2017-11-01T00:14:14.673Z,0
2017-11-01T00:15:14.008Z,0
2017-11-01T00:16:14.293Z,0
2017-11-01T00:17:14.976Z,0
2017-11-01T00:18:14.278Z,0
2017-11-01T00:19:14.582Z,0
2017-11-01T00:20:14.229Z,0
2017-11-01T00:21:14.217Z,0
2017-11-01T00:22:14.200Z,0
2017-11-01T00:23:14.216Z,0
2017-11-01T00:24:13.834Z,0
2017-11-01T00:25:14.157Z,0
2017-11-01T00:26:13.835Z,0
2017-11-01T00:27:13.793Z,0
2017-11-01T00:28:14.455Z,0
2017-11-01T00:29:13.753Z,0
2017-11-01T00:30:13.742Z,0
2017-11-01T00:31:14.067Z,0
2017-11-01T00:32:14.402Z,0
2017-11-01T00:33:14.040Z,0
2017-11-01T00:34:14.040Z,0
2017-11-01T00:35:14.017Z,0
2017-11-01T00:36:14.020Z,0
2017-11-01T00:37:14.312Z,0
2017-11-01T00:38:14.805Z,0
2017-11-01T00:39:14.083Z,0
2017-11-01T00:40:13.931Z,0
2017-11-01T00:41:13.940Z,0
2017-11-01T00:42:14.590Z,0
2017-11-01T00:43:13.630Z,0
2017-11-01T00:44:14.142Z,0
2017-11-01T00:45:13.921Z,0
2017-11-01T00:46:13.843Z,0
2017-11-01T00:47:13.892Z,0
2017-11-01T00:48:14.475Z,0
2017-11-01T00:49:14.256Z,0
2017-11-01T00:50:13.686Z,0
2017-11-01T00:51:13.829Z,0
2017-11-01T00:52:14.102Z,0
2017-11-01T00:53:13.797Z,0
2017-11-01T00:54:13.671Z,0
2017-11-01T00:55:13.778Z,0
2017-11-01T00:56:13.618Z,0
2017-11-01T00:57:14.143Z,0
2017-11-01T00:58:13.957Z,0
2017-11-01T00:59:14.091Z,0
2017-11-01T01:00:13.545Z,0
2017-11-01T01:01:13.681Z,0
2017-11-01T01:02:14.300Z,0
2017-11-01T01:03:13.644Z,0
2017-11-01T01:04:13.878Z,0
2017-11-01T01:05:14.066Z,0
2017-11-01T01:06:13.457Z,0
2017-11-01T01:07:13.592Z,0
2017-11-01T01:08:14.222Z,0
2017-11-01T01:09:14.343Z,0
2017-11-01T01:10:13.442Z,0
2017-11-01T01:11:13.923Z,0
2017-11-01T01:12:13.322Z,0
2017-11-01T01:13:13.787Z,0
2017-11-01T01:14:14.433Z,0
2017-11-01T01:15:13.400Z,0
2017-11-01T01:16:14.044Z,0
2017-11-01T01:17:13.749Z,0
2017-11-01T01:18:13.211Z,0
2017-11-01T01:19:14.452Z,0
2017-11-01T01:20:13.218Z,0
2017-11-01T01:21:13.265Z,0
2017-11-01T01:22:13.204Z,0
2017-11-01T01:23:13.282Z,0
2017-11-01T01:24:13.162Z,0
2017-11-01T01:25:13.665Z,0
2017-11-01T01:26:13.562Z,0
2017-11-01T01:27:13.518Z,0
2017-11-01T01:28:13.416Z,0
2017-11-01T01:29:13.199Z,0
2017-11-01T01:30:13.734Z,0
2017-11-01T01:31:13.178Z,0
2017-11-01T01:32:13.712Z,0
2017-11-01T01:33:13.076Z,0
2017-11-01T01:34:13.013Z,0
2017-11-01T01:35:13.027Z,0
2017-11-01T01:36:13.713Z,0
2017-11-01T01:37:13.380Z,0
2017-11-01T01:38:13.705Z,0
2017-11-01T01:39:13.449Z,0
2017-11-01T01:40:13.816Z,0
2017-11-01T01:41:12.925Z,0
2017-11-01T01:42:13.249Z,0
2017-11-01T01:43:12.928Z,0
2017-11-01T01:44:13.275Z,0
2017-11-01T01:45:13.250Z,0
2017-11-01T01:46:13.610Z,0
2017-11-01T01:47:12.823Z,0
2017-11-01T01:48:12.854Z,0
2017-11-01T01:49:13.508Z,0
2017-11-01T01:50:12.791Z,0
2017-11-01T01:51:13.584Z,0
2017-11-01T01:52:13.618Z,0
2017-11-01T01:53:13.153Z,0
2017-11-01T01:54:13.136Z,0
2017-11-01T01:55:13.106Z,0
2017-11-01T01:56:12.662Z,0
2017-11-01T01:57:13.523Z,0
2017-11-01T01:58:13.151Z,0
2017-11-01T01:59:13.074Z,0
2017-11-01T02:00:12.611Z,0
2017-11-01T02:01:12.645Z,0
2017-11-01T02:02:13.031Z,0
2017-11-01T02:03:13.326Z,0
2017-11-01T02:04:13.287Z,0
2017-11-01T02:05:13.330Z,0
2017-11-01T02:06:12.869Z,0
2017-11-01T02:07:13.322Z,0
2017-11-01T02:08:13.167Z,0
2017-11-01T02:09:12.499Z,0
2017-11-01T02:10:13.235Z,0
2017-11-01T02:11:12.926Z,0
2017-11-01T02:12:13.175Z,0
2017-11-01T02:13:13.151Z,0
2017-11-01T02:14:12.783Z,0
2017-11-01T02:15:12.462Z,0
2017-11-01T02:16:13.034Z,0
2017-11-01T02:17:12.718Z,0
2017-11-01T02:18:12.770Z,0
2017-11-01T02:19:13.112Z,0
2017-11-01T02:20:12.473Z,0
2017-11-01T02:21:12.972Z,0
2017-11-01T02:22:13.143Z,0
2017-11-01T02:23:12.299Z,0
2017-11-01T02:24:12.398Z,0
2017-11-01T02:25:12.725Z,0
2017-11-01T02:26:12.364Z,0
2017-11-01T02:27:12.706Z,0
2017-11-01T02:28:12.679Z,0
2017-11-01T02:29:12.321Z,0
2017-11-01T02:30:12.988Z,0
2017-11-01T02:31:12.305Z,0
2017-11-01T02:32:11.939Z,0
2017-11-01T02:33:12.647Z,0
2017-11-01T02:34:12.261Z,0
2017-11-01T02:35:12.238Z,0
2017-11-01T02:36:11.881Z,0
2017-11-01T02:37:11.865Z,0
2017-11-01T02:38:12.200Z,0
2017-11-01T02:39:12.178Z,0
2017-11-01T02:40:12.162Z,0
2017-11-01T02:41:12.511Z,0
2017-11-01T02:42:12.140Z,0
2017-11-01T02:43:12.141Z,0
2017-11-01T02:44:12.479Z,0
2017-11-01T02:45:12.463Z,0
2017-11-01T02:46:11.734Z,0
2017-11-01T02:47:12.401Z,0
2017-11-01T02:48:11.707Z,0
2017-11-01T02:49:12.029Z,0
2017-11-01T02:50:12.374Z,0
2017-11-01T02:51:12.018Z,0
2017-11-01T02:52:11.997Z,0
2017-11-01T02:53:11.974Z,0
2017-11-01T02:54:12.312Z,0
2017-11-01T02:55:11.945Z,0
2017-11-01T02:56:11.612Z,0
2017-11-01T02:57:12.597Z,0
2017-11-01T02:58:11.903Z,0
2017-11-01T02:59:12.231Z,0
2017-11-01T03:00:11.532Z,0
2017-11-01T03:01:11.863Z,0
2017-11-01T03:02:11.504Z,0
2017-11-01T03:03:11.834Z,0
2017-11-01T03:04:12.222Z,0
2017-11-01T03:05:11.806Z,0
2017-11-01T03:06:12.466Z,0
2017-11-01T03:07:11.443Z,0
2017-11-01T03:08:11.417Z,0
2017-11-01T03:09:11.751Z,0
2017-11-01T03:10:12.103Z,0
2017-11-01T03:11:12.052Z,0
2017-11-01T03:12:11.746Z,0
2017-11-01T03:13:12.365Z,0
2017-11-01T03:14:11.676Z,0
2017-11-01T03:15:12.623Z,0
2017-11-01T03:16:11.642Z,0
2017-11-01T03:17:11.327Z,0
2017-11-01T03:18:11.614Z,0
2017-11-01T03:19:11.945Z,0
2017-11-01T03:20:11.596Z,0
2017-11-01T03:21:11.916Z,0
2017-11-01T03:22:12.260Z,0
2017-11-01T03:23:11.207Z,0
2017-11-01T03:24:11.874Z,0
2017-11-01T03:25:11.173Z,0
2017-11-01T03:26:11.504Z,0
2017-11-01T03:27:11.515Z,0
2017-11-01T03:28:11.856Z,0
2017-11-01T03:29:11.125Z,0
2017-11-01T03:30:11.799Z,0
2017-11-01T03:31:11.452Z,0
2017-11-01T03:32:11.409Z,0
2017-11-01T03:33:11.397Z,0
2017-11-01T03:34:11.391Z,0
2017-11-01T03:35:11.032Z,0
2017-11-01T03:36:11.700Z,0
2017-11-01T03:37:11.684Z,0
2017-11-01T03:38:11.329Z,0
2017-11-01T03:39:11.309Z,0
2017-11-01T03:40:10.956Z,0
2017-11-01T03:41:11.310Z,0
2017-11-01T03:42:11.264Z,0
2017-11-01T03:43:10.913Z,0
2017-11-01T03:44:11.238Z,0
2017-11-01T03:45:10.886Z,0
2017-11-01T03:46:11.918Z,0
2017-11-01T03:47:10.856Z,0
2017-11-01T03:48:11.535Z,0
2017-11-01T03:49:11.507Z,0
2017-11-01T03:50:10.812Z,0
2017-11-01T03:51:11.156Z,0
2017-11-01T03:52:11.463Z,0
2017-11-01T03:53:11.446Z,0
2017-11-01T03:54:11.435Z,0
2017-11-01T03:55:11.418Z,0
2017-11-01T03:56:10.742Z,0
2017-11-01T03:57:11.055Z,0
2017-11-01T03:58:11.044Z,0
2017-11-01T03:59:11.019Z,0
2017-11-01T04:00:11.354Z,0
2017-11-01T04:01:10.671Z,0
2017-11-01T04:02:10.635Z,0
2017-11-01T04:03:11.300Z,0
2017-11-01T04:04:10.609Z,0
2017-11-01T04:05:10.595Z,0
2017-11-01T04:06:10.925Z,0
2017-11-01T04:07:11.255Z,0
2017-11-01T04:08:10.554Z,0
2017-11-01T04:09:11.216Z,0
2017-11-01T04:10:10.861Z,0
2017-11-01T04:11:11.047Z,0
2017-11-01T04:12:11.531Z,0
2017-11-01T04:13:10.818Z,0
2017-11-01T04:14:10.474Z,0
2017-11-01T04:15:10.792Z,0
2017-11-01T04:16:10.431Z,0
2017-11-01T04:17:10.418Z,0
2017-11-01T04:18:10.752Z,0
2017-11-01T04:19:10.730Z,0
2017-11-01T04:20:10.742Z,0
2017-11-01T04:21:10.359Z,0
2017-11-01T04:22:10.703Z,0
2017-11-01T04:23:11.010Z,0
2017-11-01T04:24:11.005Z,0
2017-11-01T04:25:10.984Z,0
2017-11-01T04:26:10.629Z,0
2017-11-01T04:27:10.274Z,0
2017-11-01T04:28:10.604Z,0
2017-11-01T04:29:10.249Z,0
2017-11-01T04:30:10.582Z,0
2017-11-01T04:31:10.937Z,0
2017-11-01T04:32:10.198Z,0
2017-11-01T04:33:10.523Z,0
2017-11-01T04:34:10.192Z,0
2017-11-01T04:35:10.510Z,0
2017-11-01T04:36:10.143Z,0
2017-11-01T04:37:10.467Z,0
2017-11-01T04:38:10.453Z,0
2017-11-01T04:39:10.439Z,0
2017-11-01T04:40:10.429Z,0
2017-11-01T04:41:10.753Z,0
2017-11-01T04:42:10.404Z,0
2017-11-01T04:43:10.413Z,0
2017-11-01T04:44:10.723Z,0
2017-11-01T04:45:10.366Z,0
2017-11-01T04:46:10.022Z,0
2017-11-01T04:47:10.334Z,0
2017-11-01T04:48:10.309Z,0
2017-11-01T04:49:10.632Z,0
2017-11-01T04:50:10.632Z,0
2017-11-01T04:51:10.264Z,0
2017-11-01T04:52:10.263Z,0
2017-11-01T04:53:10.598Z,0
2017-11-01T04:54:10.231Z,0
2017-11-01T04:55:09.878Z,0
2017-11-01T04:56:10.207Z,0
2017-11-01T04:57:10.178Z,0
2017-11-01T04:58:10.505Z,0
2017-11-01T04:59:10.144Z,0
2017-11-01T05:00:10.159Z,0
2017-11-01T05:01:09.777Z,0
2017-11-01T05:02:09.765Z,0
2017-11-01T05:03:10.469Z,0
2017-11-01T05:04:10.415Z,0
2017-11-01T05:05:10.423Z,0
2017-11-01T05:06:10.401Z,0
2017-11-01T05:07:10.046Z,0
2017-11-01T05:08:10.011Z,0
2017-11-01T05:09:10.002Z,0
2017-11-01T05:10:09.986Z,0
2017-11-01T05:11:09.973Z,0
2017-11-01T05:12:09.615Z,0
2017-11-01T05:13:09.597Z,0
2017-11-01T05:14:09.585Z,0
2017-11-01T05:15:09.584Z,0
2017-11-01T05:16:09.896Z,0
2017-11-01T05:17:09.882Z,0
2017-11-01T05:18:09.881Z,0
2017-11-01T05:19:09.858Z,0
2017-11-01T05:20:09.497Z,0
2017-11-01T05:21:09.828Z,0
2017-11-01T05:22:09.465Z,0
2017-11-01T05:23:09.810Z,0
2017-11-01T05:24:10.120Z,0
2017-11-01T05:25:09.423Z,0
2017-11-01T05:26:09.418Z,0
2017-11-01T05:27:09.738Z,0
2017-11-01T05:28:10.065Z,0
2017-11-01T05:29:10.069Z,0
2017-11-01T05:30:09.370Z,0
2017-11-01T05:31:10.361Z,0
2017-11-01T05:32:09.661Z,0
2017-11-01T05:33:09.640Z,0
2017-11-01T05:34:09.979Z,0
2017-11-01T05:35:09.283Z,0
2017-11-01T05:36:09.614Z,0
2017-11-01T05:37:09.594Z,0
2017-11-01T05:38:09.579Z,4
2017-11-01T05:39:09.553Z,4
2017-11-01T05:40:09.547Z,0
2017-11-01T05:41:09.869Z,4
2017-11-01T05:42:09.191Z,4
2017-11-01T05:43:09.207Z,4
2017-11-01T05:44:10.169Z,4
2017-11-01T05:45:09.803Z,8
2017-11-01T05:46:09.447Z,8
2017-11-01T05:47:09.461Z,8
2017-11-01T05:48:09.456Z,8
2017-11-01T05:49:09.423Z,12
2017-11-01T05:50:09.392Z,12
2017-11-01T05:51:09.732Z,16
2017-11-01T05:52:09.359Z,16
2017-11-01T05:53:09.353Z,20
2017-11-01T05:54:09.350Z,24
2017-11-01T05:55:09.318Z,28
2017-11-01T05:56:09.300Z,32
2017-11-01T05:57:09.289Z,40
2017-11-01T05:58:08.932Z,44
2017-11-01T05:59:08.971Z,48
2017-11-01T06:00:09.245Z,48
2017-11-01T06:01:09.228Z,56
2017-11-01T06:02:08.888Z,64
2017-11-01T06:03:09.539Z,64
2017-11-01T06:04:09.205Z,72
2017-11-01T06:05:08.830Z,80
2017-11-01T06:06:08.812Z,84
2017-11-01T06:07:08.801Z,92
2017-11-01T06:08:09.130Z,100
2017-11-01T06:09:08.769Z,100
2017-11-01T06:10:08.758Z,104
2017-11-01T06:11:09.101Z,112
2017-11-01T06:12:09.065Z,124
2017-11-01T06:13:09.310Z,144
2017-11-01T06:14:09.378Z,140
2017-11-01T06:15:09.649Z,136
2017-11-01T06:16:09.026Z,144
2017-11-01T06:17:08.671Z,148
2017-11-01T06:18:08.977Z,160
2017-11-01T06:19:08.638Z,168
2017-11-01T06:20:08.957Z,164
2017-11-01T06:21:08.593Z,168
2017-11-01T06:22:08.935Z,168
2017-11-01T06:23:08.902Z,168
2017-11-01T06:24:08.571Z,156
2017-11-01T06:25:09.219Z,176
2017-11-01T06:26:08.522Z,200
2017-11-01T06:27:08.847Z,204
2017-11-01T06:28:08.493Z,220
2017-11-01T06:29:08.476Z,232
2017-11-01T06:30:08.485Z,256
2017-11-01T06:31:08.445Z,260
2017-11-01T06:32:08.795Z,276
2017-11-01T06:33:09.091Z,312
2017-11-01T06:34:08.403Z,344
2017-11-01T06:35:08.389Z,384
2017-11-01T06:36:08.369Z,408
2017-11-01T06:37:08.355Z,412
2017-11-01T06:38:09.020Z,424
2017-11-01T06:39:08.665Z,428
2017-11-01T06:40:08.649Z,396
2017-11-01T06:41:08.636Z,428
2017-11-01T06:42:08.713Z,436
2017-11-01T06:43:08.266Z,416
2017-11-01T06:44:08.603Z,424
2017-11-01T06:45:08.576Z,428
2017-11-01T06:46:08.219Z,452
2017-11-01T06:47:08.227Z,448
2017-11-01T06:48:08.883Z,432
2017-11-01T06:49:08.191Z,408
2017-11-01T06:50:08.167Z,396
2017-11-01T06:51:08.149Z,412
2017-11-01T06:52:08.129Z,428
2017-11-01T06:53:08.117Z,452
2017-11-01T06:54:08.439Z,476
2017-11-01T06:55:08.449Z,504
2017-11-01T06:56:08.428Z,536
2017-11-01T06:57:08.737Z,604
2017-11-01T06:58:08.420Z,684
2017-11-01T06:59:08.732Z,828
2017-11-01T07:00:08.695Z,908
2017-11-01T07:01:08.675Z,1028
2017-11-01T07:02:08.681Z,1032
2017-11-01T07:03:08.340Z,996
2017-11-01T07:04:08.292Z,996
2017-11-01T07:05:08.626Z,996
2017-11-01T07:06:07.945Z,996
2017-11-01T07:07:07.909Z,968
2017-11-01T07:08:08.576Z,904
2017-11-01T07:09:08.561Z,876
2017-11-01T07:10:08.221Z,912
2017-11-01T07:11:08.190Z,960
2017-11-01T07:12:08.525Z,948
2017-11-01T07:13:08.550Z,1044
2017-11-01T07:14:08.178Z,1108
2017-11-01T07:15:08.470Z,1128
2017-11-01T07:16:08.472Z,1036
2017-11-01T07:17:08.125Z,1060
2017-11-01T07:18:08.094Z,1132
2017-11-01T07:19:08.412Z,1152
2017-11-01T07:20:07.724Z,1144
2017-11-01T07:21:08.040Z,1060
2017-11-01T07:22:08.386Z,1056
2017-11-01T07:23:08.012Z,980
2017-11-01T07:24:08.011Z,916
2017-11-01T07:25:08.363Z,940
2017-11-01T07:26:08.335Z,964
2017-11-01T07:27:07.625Z,960
2017-11-01T07:28:07.973Z,1020
2017-11-01T07:29:07.924Z,1088
2017-11-01T07:30:08.269Z,1032
2017-11-01T07:31:07.553Z,1140
2017-11-01T07:32:07.887Z,1220
2017-11-01T07:33:07.534Z,1288
2017-11-01T07:34:07.871Z,1252
2017-11-01T07:35:08.178Z,1200
2017-11-01T07:36:07.820Z,1208
2017-11-01T07:37:07.465Z,1388
2017-11-01T07:38:07.840Z,1488
2017-11-01T07:39:08.120Z,1504
2017-11-01T07:40:07.780Z,1516
2017-11-01T07:41:07.750Z,1608
2017-11-01T07:42:07.736Z,1688
2017-11-01T07:43:07.716Z,1752
2017-11-01T07:44:07.702Z,1948
2017-11-01T07:45:07.702Z,2208
2017-11-01T07:46:07.344Z,2272
2017-11-01T07:47:08.042Z,2204
2017-11-01T07:48:07.667Z,2056
2017-11-01T07:49:07.639Z,1976
2017-11-01T07:50:07.983Z,2008
2017-11-01T07:51:07.603Z,2104
2017-11-01T07:52:07.619Z,2404
2017-11-01T07:53:07.934Z,2372
2017-11-01T07:54:07.557Z,2172
2017-11-01T07:55:07.899Z,1988
2017-11-01T07:56:07.551Z,1776
2017-11-01T07:57:07.189Z,1624
2017-11-01T07:58:07.554Z,1696
2017-11-01T07:59:08.178Z,1736
2017-11-01T08:00:07.484Z,1696
2017-11-01T08:01:07.809Z,1748
2017-11-01T08:02:07.115Z,1772
2017-11-01T08:03:07.448Z,1656
2017-11-01T08:04:07.439Z,1456
2017-11-01T08:05:07.400Z,1256
2017-11-01T08:06:07.043Z,1276
2017-11-01T08:07:07.720Z,1272
2017-11-01T08:08:07.355Z,1340
2017-11-01T08:09:06.998Z,1524
2017-11-01T08:10:07.674Z,1676
2017-11-01T08:11:07.719Z,1552
2017-11-01T08:12:07.312Z,1508
2017-11-01T08:13:07.287Z,1496
2017-11-01T08:14:07.265Z,1464
2017-11-01T08:15:07.978Z,1540
2017-11-01T08:16:07.268Z,1588
2017-11-01T08:17:07.600Z,1552
2017-11-01T08:18:06.889Z,1376
2017-11-01T08:19:07.547Z,1304
2017-11-01T08:20:07.529Z,1276
2017-11-01T08:21:07.510Z,1328
2017-11-01T08:22:07.559Z,1524
2017-11-01T08:23:07.495Z,1688
2017-11-01T08:24:07.469Z,1688
2017-11-01T08:25:07.798Z,1708
2017-11-01T08:26:06.761Z,1720
2017-11-01T08:27:07.467Z,1772
2017-11-01T08:28:07.063Z,1816
2017-11-01T08:29:07.747Z,1832
2017-11-01T08:30:06.724Z,1944
2017-11-01T08:31:07.077Z,2172
2017-11-01T08:32:07.016Z,2344
2017-11-01T08:33:07.339Z,2324
2017-11-01T08:34:06.666Z,2304
2017-11-01T08:35:07.683Z,2656
2017-11-01T08:36:06.969Z,2308
2017-11-01T08:37:07.281Z,2052
2017-11-01T08:38:06.584Z,2192
2017-11-01T08:39:07.636Z,2540
2017-11-01T08:40:07.262Z,2552
2017-11-01T08:41:06.581Z,2244
2017-11-01T08:42:06.868Z,1912
2017-11-01T08:43:06.852Z,1576
2017-11-01T08:44:06.527Z,1716
2017-11-01T08:45:06.829Z,1828
2017-11-01T08:46:06.806Z,1724
2017-11-01T08:47:06.818Z,1832
2017-11-01T08:48:06.443Z,2020
2017-11-01T08:49:06.433Z,2316
2017-11-01T08:50:06.433Z,2300
2017-11-01T08:51:07.075Z,2468
2017-11-01T08:52:06.738Z,2372
2017-11-01T08:53:06.749Z,2188
2017-11-01T08:54:06.915Z,2184
2017-11-01T08:55:07.398Z,2088
2017-11-01T08:56:06.700Z,2076
2017-11-01T08:57:06.321Z,2400
2017-11-01T08:58:06.650Z,2848
2017-11-01T08:59:06.694Z,3000
2017-11-01T09:00:06.627Z,2980
2017-11-01T09:01:06.605Z,3184
2017-11-01T09:02:06.615Z,3016
2017-11-01T09:03:06.914Z,3344
2017-11-01T09:04:06.588Z,3688
2017-11-01T09:05:06.206Z,3452
2017-11-01T09:06:06.532Z,3396
2017-11-01T09:07:06.528Z,3060
2017-11-01T09:08:06.158Z,3236
2017-11-01T09:09:06.513Z,2672
2017-11-01T09:10:06.128Z,2760
2017-11-01T09:11:06.112Z,2432
2017-11-01T09:12:06.458Z,2136
2017-11-01T09:13:06.107Z,2048
2017-11-01T09:14:06.075Z,2304
2017-11-01T09:15:06.443Z,2336
2017-11-01T09:16:06.444Z,2536
2017-11-01T09:17:06.383Z,2508
2017-11-01T09:18:06.375Z,2404
2017-11-01T09:19:06.707Z,2264
2017-11-01T09:20:06.342Z,2212
2017-11-01T09:21:06.346Z,2196
2017-11-01T09:22:06.312Z,2180
2017-11-01T09:23:06.285Z,2300
2017-11-01T09:24:06.645Z,2552
2017-11-01T09:25:06.662Z,2548
2017-11-01T09:26:06.601Z,2592
2017-11-01T09:27:06.233Z,2744
2017-11-01T09:28:06.250Z,2560
2017-11-01T09:29:06.552Z,2496
2017-11-01T09:30:06.235Z,2476
2017-11-01T09:31:06.206Z,2688
2017-11-01T09:32:06.163Z,2844
2017-11-01T09:33:06.162Z,3064
2017-11-01T09:34:05.801Z,3276
2017-11-01T09:35:05.781Z,3632
2017-11-01T09:36:06.132Z,4328
2017-11-01T09:37:06.101Z,4872
2017-11-01T09:38:05.737Z,4988
2017-11-01T09:39:06.501Z,4620
2017-11-01T09:40:05.710Z,4744
2017-11-01T09:41:06.379Z,4848
2017-11-01T09:42:06.028Z,4808
2017-11-01T09:43:06.348Z,5088
2017-11-01T09:44:05.658Z,5388
2017-11-01T09:45:05.982Z,5648
2017-11-01T09:46:05.981Z,5656
2017-11-01T09:47:06.301Z,5548
2017-11-01T09:48:06.281Z,5664
2017-11-01T09:49:05.589Z,5428
2017-11-01T09:50:05.933Z,4816
2017-11-01T09:51:05.566Z,4296
2017-11-01T09:52:06.226Z,4212
2017-11-01T09:53:05.868Z,4268
2017-11-01T09:54:06.541Z,3924
2017-11-01T09:55:05.859Z,4120
2017-11-01T09:56:05.863Z,3988
2017-11-01T09:57:05.508Z,3696
2017-11-01T09:58:05.802Z,3600
2017-11-01T09:59:06.524Z,3332
2017-11-01T10:00:05.795Z,3032
2017-11-01T10:01:05.764Z,3068
2017-11-01T10:02:06.107Z,3128
2017-11-01T10:03:05.733Z,3364
2017-11-01T10:04:05.731Z,3540
2017-11-01T10:05:06.417Z,3896
2017-11-01T10:06:05.700Z,4008
2017-11-01T10:07:05.680Z,4252
2017-11-01T10:08:05.361Z,4024
2017-11-01T10:09:05.995Z,3936
2017-11-01T10:10:05.301Z,3584
2017-11-01T10:11:06.015Z,3400
2017-11-01T10:12:05.613Z,3708
2017-11-01T10:13:05.599Z,3812
2017-11-01T10:14:05.590Z,4256
2017-11-01T10:15:05.915Z,4820
2017-11-01T10:16:05.895Z,4796
2017-11-01T10:17:05.560Z,5124
2017-11-01T10:18:05.217Z,5292
2017-11-01T10:19:05.181Z,4604
2017-11-01T10:20:05.844Z,3956
2017-11-01T10:21:05.610Z,3748
2017-11-01T10:22:05.827Z,3484
2017-11-01T10:23:05.151Z,3612
2017-11-01T10:24:05.117Z,3764
2017-11-01T10:25:05.447Z,3864
2017-11-01T10:26:05.093Z,3560
2017-11-01T10:27:05.782Z,3276
2017-11-01T10:28:05.761Z,3204
2017-11-01T10:29:05.754Z,3008
2017-11-01T10:30:05.749Z,2908
2017-11-01T10:31:05.365Z,2688
2017-11-01T10:32:05.012Z,2344
2017-11-01T10:33:05.677Z,2548
2017-11-01T10:34:05.326Z,2536
2017-11-01T10:35:04.974Z,2836
2017-11-01T10:36:05.986Z,3732
2017-11-01T10:37:05.291Z,4080
2017-11-01T10:38:05.611Z,4208
2017-11-01T10:39:04.926Z,4244
2017-11-01T10:40:05.584Z,4964
2017-11-01T10:41:05.236Z,5804
2017-11-01T10:42:05.219Z,6416
2017-11-01T10:43:04.862Z,6216
2017-11-01T10:44:05.187Z,5672
2017-11-01T10:45:05.176Z,6032
2017-11-01T10:46:04.837Z,6468
2017-11-01T10:47:05.493Z,6612
2017-11-01T10:48:05.136Z,5488
2017-11-01T10:49:05.120Z,4624
2017-11-01T10:50:04.770Z,4484
2017-11-01T10:51:05.095Z,4056
2017-11-01T10:52:05.118Z,3892
2017-11-01T10:53:05.074Z,3900
2017-11-01T10:54:05.056Z,4224
2017-11-01T10:55:05.064Z,4040
2017-11-01T10:56:05.040Z,3800
2017-11-01T10:57:05.027Z,3488
2017-11-01T10:58:04.663Z,3476
2017-11-01T10:59:04.987Z,3284
2017-11-01T11:00:05.326Z,3312
2017-11-01T11:01:05.303Z,3368
2017-11-01T11:02:04.974Z,3536
2017-11-01T11:03:04.949Z,3944
2017-11-01T11:04:04.583Z,4168
2017-11-01T11:05:04.941Z,4528
2017-11-01T11:06:04.897Z,4296
2017-11-01T11:07:05.225Z,4272
2017-11-01T11:08:04.872Z,4376
2017-11-01T11:09:04.864Z,4400
2017-11-01T11:10:04.876Z,4756
2017-11-01T11:11:04.515Z,4512
2017-11-01T11:12:04.480Z,4436
2017-11-01T11:13:04.821Z,4224
2017-11-01T11:14:04.791Z,3844
2017-11-01T11:15:05.480Z,3908
2017-11-01T11:16:04.765Z,3788
2017-11-01T11:17:04.760Z,3596
2017-11-01T11:18:04.763Z,4084
2017-11-01T11:19:05.087Z,3884
2017-11-01T11:20:04.394Z,3756
2017-11-01T11:21:05.053Z,4316
2017-11-01T11:22:05.045Z,4320
2017-11-01T11:23:04.703Z,4004
2017-11-01T11:24:04.662Z,3964
2017-11-01T11:25:05.035Z,4040
2017-11-01T11:26:04.309Z,4244
2017-11-01T11:27:04.983Z,4044
2017-11-01T11:28:04.647Z,3652
2017-11-01T11:29:04.965Z,3500
2017-11-01T11:30:04.600Z,3372
2017-11-01T11:31:04.944Z,3784
2017-11-01T11:32:04.557Z,4800
2017-11-01T11:33:04.894Z,5348
2017-11-01T11:34:04.536Z,4908
2017-11-01T11:35:04.195Z,4396
2017-11-01T11:36:04.508Z,4452
2017-11-01T11:37:04.497Z,5392
2017-11-01T11:38:05.188Z,5516
2017-11-01T11:39:04.810Z,5512
2017-11-01T11:40:04.115Z,4384
2017-11-01T11:41:04.098Z,3812
2017-11-01T11:42:04.094Z,4240
2017-11-01T11:43:04.769Z,4560
2017-11-01T11:44:04.405Z,3996
2017-11-01T11:45:05.084Z,4188
2017-11-01T11:46:04.380Z,4492
2017-11-01T11:47:04.026Z,4632
2017-11-01T11:48:04.363Z,4724
2017-11-01T11:49:04.683Z,4708
2017-11-01T11:50:04.671Z,4520
2017-11-01T11:51:04.312Z,4524
2017-11-01T11:52:03.962Z,4684
2017-11-01T11:53:04.305Z,4836
2017-11-01T11:54:04.636Z,4168
2017-11-01T11:55:03.927Z,3668
2017-11-01T11:56:04.269Z,3536
2017-11-01T11:57:04.248Z,3248
2017-11-01T11:58:03.894Z,3268
2017-11-01T11:59:03.876Z,3236
2017-11-01T12:00:04.201Z,3924
2017-11-01T12:01:04.534Z,4384
2017-11-01T12:02:03.834Z,4908
2017-11-01T12:03:03.822Z,5208
2017-11-01T12:04:04.829Z,5380
2017-11-01T12:05:04.132Z,5640
2017-11-01T12:06:03.787Z,5808
2017-11-01T12:07:04.823Z,6624
2017-11-01T12:08:04.100Z,6892
2017-11-01T12:09:03.742Z,6552
2017-11-01T12:10:03.734Z,6192
2017-11-01T12:11:04.421Z,5836
2017-11-01T12:12:03.707Z,5964
2017-11-01T12:13:04.034Z,6100
2017-11-01T12:14:04.022Z,6284
2017-11-01T12:15:04.022Z,6348
2017-11-01T12:16:03.681Z,6140
2017-11-01T12:17:04.346Z,5836
2017-11-01T12:18:04.313Z,5316
2017-11-01T12:19:03.959Z,5112
2017-11-01T12:20:03.946Z,5404
2017-11-01T12:21:04.274Z,5632
2017-11-01T12:22:03.583Z,5540
2017-11-01T12:23:03.580Z,5256
2017-11-01T12:24:04.248Z,5720
2017-11-01T12:25:03.895Z,5428
2017-11-01T12:26:03.873Z,5240
2017-11-01T12:27:03.521Z,5096
2017-11-01T12:28:03.848Z,5272
2017-11-01T12:29:03.835Z,5084
2017-11-01T12:30:04.179Z,4768
2017-11-01T12:31:04.513Z,4368
2017-11-01T12:32:03.822Z,4944
2017-11-01T12:33:04.134Z,4516
2017-11-01T12:34:03.436Z,4980
2017-11-01T12:35:03.766Z,4980
2017-11-01T12:36:04.094Z,4592
2017-11-01T12:37:03.742Z,4656
2017-11-01T12:38:04.111Z,5152
2017-11-01T12:39:03.376Z,5448
2017-11-01T12:40:04.047Z,6032
2017-11-01T12:41:03.703Z,5688
2017-11-01T12:42:04.021Z,5708
2017-11-01T12:43:03.329Z,5852
2017-11-01T12:44:04.362Z,5000
2017-11-01T12:45:03.654Z,4004
2017-11-01T12:46:03.668Z,3548
2017-11-01T12:47:03.282Z,3616
2017-11-01T12:48:03.955Z,3684
2017-11-01T12:49:03.273Z,4052
2017-11-01T12:50:03.587Z,3736
2017-11-01T12:51:03.239Z,3512
2017-11-01T12:52:03.565Z,3648
2017-11-01T12:53:03.553Z,3564
2017-11-01T12:54:03.880Z,3552
2017-11-01T12:55:03.529Z,3520
2017-11-01T12:56:03.523Z,3584
2017-11-01T12:57:03.516Z,3616
2017-11-01T12:58:03.494Z,3444
2017-11-01T12:59:03.820Z,3200
2017-11-01T13:00:03.468Z,3672
2017-11-01T13:01:03.141Z,3708
2017-11-01T13:02:03.798Z,3680
2017-11-01T13:03:03.091Z,3476
2017-11-01T13:04:03.078Z,3476
2017-11-01T13:05:03.068Z,3408
2017-11-01T13:06:03.395Z,3552
2017-11-01T13:07:03.045Z,3532
2017-11-01T13:08:03.394Z,3944
2017-11-01T13:09:03.357Z,4064
2017-11-01T13:10:03.007Z,3980
2017-11-01T13:11:03.683Z,4056
2017-11-01T13:12:03.668Z,4864
2017-11-01T13:13:03.315Z,5420
2017-11-01T13:14:03.652Z,5996
2017-11-01T13:15:03.287Z,5460
2017-11-01T13:16:03.274Z,4944
2017-11-01T13:17:03.952Z,4132
2017-11-01T13:18:03.253Z,3080
2017-11-01T13:19:03.244Z,2544
2017-11-01T13:20:03.234Z,2656
2017-11-01T13:21:02.875Z,2984
2017-11-01T13:22:03.547Z,3000
2017-11-01T13:23:03.194Z,3684
2017-11-01T13:24:02.866Z,3928
2017-11-01T13:25:03.514Z,4588
2017-11-01T13:26:03.158Z,4756
2017-11-01T13:27:02.805Z,4692
2017-11-01T13:28:02.792Z,4936
2017-11-01T13:29:02.779Z,5300
2017-11-01T13:30:02.767Z,5100
2017-11-01T13:31:03.097Z,4312
2017-11-01T13:32:02.742Z,4868
2017-11-01T13:33:03.071Z,4728
2017-11-01T13:34:03.077Z,4688
2017-11-01T13:35:03.047Z,4876
2017-11-01T13:36:03.379Z,4336
2017-11-01T13:37:03.380Z,3980
2017-11-01T13:38:03.020Z,4032
2017-11-01T13:39:03.002Z,3844
2017-11-01T13:40:03.334Z,3384
2017-11-01T13:41:02.994Z,2972
2017-11-01T13:42:02.643Z,2760
2017-11-01T13:43:02.963Z,2352
2017-11-01T13:44:02.601Z,2292
2017-11-01T13:45:02.949Z,2528
2017-11-01T13:46:02.579Z,2876
2017-11-01T13:47:02.926Z,2940
2017-11-01T13:48:03.577Z,3216
2017-11-01T13:49:02.884Z,3256
2017-11-01T13:50:02.910Z,3208
2017-11-01T13:51:02.863Z,2992
2017-11-01T13:52:03.189Z,2872
2017-11-01T13:53:02.837Z,2884
2017-11-01T13:54:03.182Z,3524
2017-11-01T13:55:02.822Z,3780
2017-11-01T13:56:03.003Z,3856